Time;durP1;ratioP1;P1;durP2;ratioP2;P2;SDS_P1;SDS_P2;PMS_P1;PMS_P2;Temp;Humidity;BMP_temperature;BMP_pressure;BME280_temperature;BME280_humidity;BME280_pressure;Samples;Min_cycle;Max_cycle;Signal;HPM_P1;HPM_P2
2023/03/21 00:06:37;;;;;;;31.77;20.13;;;3.40;99.90;;;;;;20984183;28;20478;-49
2023/03/21 00:16:39;;;;;;;37.28;21.27;;;3.20;99.90;;;;;;20983755;28;20044;-48
2023/03/21 00:26:41;;;;;;;31.42;18.52;;;3.10;99.90;;;;;;20955885;28;20032;-49
2023/03/21 00:36:42;;;;;;;30.98;19.70;;;3.00;99.90;;;;;;20999837;28;20078;-49
2023/03/21 00:46:44;;;;;;;31.30;19.40;;;2.90;99.90;;;;;;20979419;28;20028;-50
2023/03/21 00:56:46;;;;;;;29.83;17.85;;;2.80;99.90;;;;;;20996353;28;20033;-46
2023/03/21 01:06:47;;;;;;;29.33;18.00;;;2.70;99.90;;;;;;20996648;28;20398;-46
2023/03/21 01:16:52;;;;;;;31.80;18.45;;;2.70;99.90;;;;;;20977061;28;20051;-46
2023/03/21 01:26:53;;;;;;;33.58;19.10;;;2.80;99.90;;;;;;20994265;28;20032;-49
2023/03/21 01:36:55;;;;;;;33.28;20.08;;;2.80;99.90;;;;;;20975003;28;20040;-49
2023/03/21 01:46:58;;;;;;;32.80;20.60;;;2.70;99.90;;;;;;20974492;28;20024;-46
2023/03/21 01:57:31;;;;;;;32.35;21.23;;;2.80;99.90;;;;;;20991480;28;20066;-49
2023/03/21 02:07:36;;;;;;;35.58;20.60;;;2.70;99.90;;;;;;20972925;28;20048;-50
2023/03/21 02:18:21;;;;;;;35.08;19.48;;;2.50;99.90;;;;;;20989963;28;20405;-46
2023/03/21 02:28:36;;;;;;;30.23;18.05;;;2.30;99.90;;;;;;20970852;28;20040;-48
2023/03/21 02:38:53;;;;;;;29.30;17.98;;;2.40;99.90;;;;;;20988697;28;20039;-49
2023/03/21 02:49:05;;;;;;;28.40;17.80;;;2.40;99.90;;;;;;20986419;28;20086;-47
2023/03/21 02:59:08;;;;;;;30.92;19.10;;;2.70;99.90;;;;;;20969098;28;20037;-49
2023/03/21 03:09:22;;;;;;;31.15;19.38;;;2.70;99.90;;;;;;20969947;28;20044;-47
2023/03/21 03:19:35;;;;;;;30.88;18.75;;;2.60;99.90;;;;;;20986209;28;20474;-48
2023/03/21 03:29:41;;;;;;;27.90;16.88;;;2.30;99.90;;;;;;20967244;28;20044;-48
2023/03/21 03:40:22;;;;;;;32.20;18.77;;;2.40;99.90;;;;;;20967582;28;20482;-49
2023/03/21 03:50:38;;;;;;;30.57;18.60;;;2.30;99.90;;;;;;20966820;28;20086;-46
2023/03/21 04:00:42;;;;;;;38.50;20.98;;;2.30;99.90;;;;;;20970134;28;20098;-46
2023/03/21 04:10:44;;;;;;;35.47;20.77;;;2.20;99.90;;;;;;21000179;28;20569;-50
2023/03/21 04:20:48;;;;;;;35.80;21.25;;;2.20;99.90;;;;;;21000298;28;20037;-49
2023/03/21 04:30:50;;;;;;;30.20;18.40;;;2.20;99.90;;;;;;20998268;28;20028;-46
2023/03/21 04:40:56;;;;;;;30.80;19.35;;;2.30;99.90;;;;;;20980314;28;20058;-48
2023/03/21 04:50:59;;;;;;;30.95;19.20;;;2.30;99.90;;;;;;20998535;28;20028;-47
2023/03/21 05:01:04;;;;;;;30.98;20.23;;;2.40;99.90;;;;;;20978239;28;20059;-50
2023/03/21 05:11:06;;;;;;;32.65;19.58;;;2.40;99.90;;;;;;20992641;28;20417;-47
2023/03/21 05:21:09;;;;;;;31.08;18.30;;;2.40;99.90;;;;;;20994743;28;20094;-50
2023/03/21 05:31:15;;;;;;;29.60;18.00;;;2.40;99.90;;;;;;20975388;28;20083;-48
2023/03/21 05:41:20;;;;;;;28.17;17.05;;;2.60;99.90;;;;;;20974030;28;20036;-45
2023/03/21 05:51:22;;;;;;;29.80;18.27;;;2.60;99.90;;;;;;20974950;28;20444;-49
2023/03/21 06:01:24;;;;;;;27.23;17.25;;;2.90;99.90;;;;;;20991163;28;20410;-46
2023/03/21 06:11:36;;;;;;;26.17;15.27;;;3.10;99.90;;;;;;20972706;28;20052;-48
2023/03/21 06:21:56;;;;;;;23.95;14.75;;;3.20;99.90;;;;;;20990696;28;20469;-49
2023/03/21 06:31:59;;;;;;;23.33;14.93;;;3.50;99.90;;;;;;20970707;28;20032;-47
2023/03/21 06:42:02;;;;;;;21.30;13.65;;;3.80;99.90;;;;;;20968946;28;20024;-48
2023/03/21 06:52:04;;;;;;;23.20;14.98;;;4.00;99.90;;;;;;20970198;28;20591;-50
2023/03/21 07:02:08;;;;;;;20.92;14.55;;;4.40;99.90;;;;;;20969939;28;20037;-48
2023/03/21 07:12:16;;;;;;;22.08;14.50;;;4.80;99.90;;;;;;20968952;28;20052;-48
2023/03/21 07:22:38;;;;;;;23.95;15.80;;;5.70;99.90;;;;;;20985980;28;20040;-50
2023/03/21 07:32:40;;;;;;;22.25;15.85;;;7.00;99.90;;;;;;20985588;28;20379;-48
2023/03/21 07:42:42;;;;;;;23.92;15.93;;;8.00;99.90;;;;;;20966841;28;20093;-51
2023/03/21 07:52:46;;;;;;;23.90;17.70;;;9.10;99.90;;;;;;20968222;28;20140;-51
2023/03/21 08:02:53;;;;;;;22.35;16.73;;;10.10;99.90;;;;;;20984447;28;20032;-50
2023/03/21 08:12:55;;;;;;;22.38;16.77;;;11.10;99.90;;;;;;20983779;28;20037;-50
2023/03/21 08:22:57;;;;;;;20.58;15.18;;;11.90;99.90;;;;;;20983710;28;20032;-47
2023/03/21 08:32:59;;;;;;;20.63;16.25;;;12.40;99.90;;;;;;20983154;28;20078;-46
2023/03/21 08:43:01;;;;;;;16.40;12.63;;;12.70;99.90;;;;;;20984038;28;20036;-52
2023/03/21 08:53:03;;;;;;;18.60;12.38;;;13.00;99.90;;;;;;20993476;28;20431;-51
2023/03/21 09:03:04;;;;;;;21.80;16.92;;;13.10;99.40;;;;;;20996493;28;20079;-51
2023/03/21 09:13:06;;;;;;;24.45;18.88;;;13.30;99.90;;;;;;20995893;28;20045;-50
2023/03/21 09:23:10;;;;;;;27.02;20.20;;;13.60;99.90;;;;;;20994896;28;20082;-50
2023/03/21 09:33:18;;;;;;;28.23;19.98;;;13.90;99.90;;;;;;20994063;28;20037;-52
2023/03/21 09:43:43;;;;;;;24.83;19.15;;;14.60;99.90;;;;;;20993307;28;20037;-51
2023/03/21 09:53:48;;;;;;;28.05;21.02;;;14.90;99.70;;;;;;20992503;28;20110;-49
2023/03/21 10:03:52;;;;;;;25.40;19.88;;;14.90;99.90;;;;;;20988864;28;20032;-51
2023/03/21 10:13:58;;;;;;;26.08;20.58;;;15.40;98.40;;;;;;20990636;28;20098;-50
2023/03/21 10:24:00;;;;;;;24.70;19.08;;;15.40;99.60;;;;;;20990290;28;20054;-53
2023/03/21 10:34:08;;;;;;;25.60;20.23;;;15.80;98.10;;;;;;20988926;28;20052;-50
2023/03/21 10:44:17;;;;;;;27.23;21.10;;;15.80;99.10;;;;;;20988523;28;20386;-52
2023/03/21 10:54:21;;;;;;;26.45;21.17;;;16.10;97.40;;;;;;20987756;28;20051;-51
2023/03/21 11:04:28;;;;;;;30.35;22.13;;;16.20;97.00;;;;;;20987193;28;20082;-51
2023/03/21 11:14:42;;;;;;;27.90;21.48;;;16.30;98.70;;;;;;20985562;28;20040;-52
2023/03/21 11:24:52;;;;;;;28.90;21.70;;;16.60;98.80;;;;;;20968583;28;20032;-49
2023/03/21 11:35:01;;;;;;;25.53;20.30;;;17.00;98.00;;;;;;20985856;28;20109;-50
2023/03/21 11:45:27;;;;;;;29.37;23.47;;;17.50;96.80;;;;;;20985313;28;20029;-50
2023/03/21 11:55:33;;;;;;;32.80;23.52;;;17.40;95.90;;;;;;20985335;28;20035;-54
2023/03/21 12:05:37;;;;;;;26.30;21.55;;;17.20;97.00;;;;;;20984079;28;20045;-51
2023/03/21 12:15:57;;;;;;;24.35;20.20;;;17.10;96.30;;;;;;20983987;28;20052;-50
2023/03/21 12:26:02;;;;;;;20.40;16.48;;;16.90;96.20;;;;;;20993251;28;20028;-51
2023/03/21 12:36:28;;;;;;;19.50;14.77;;;16.60;96.60;;;;;;21000603;28;20040;-51
2023/03/21 12:46:52;;;;;;;19.98;13.27;;;16.70;96.20;;;;;;20998254;28;20024;-52
2023/03/21 12:57:01;;;;;;;14.73;11.35;;;16.40;93.90;;;;;;20997138;28;20028;-51
2023/03/21 13:07:06;;;;;;;14.68;10.85;;;16.10;95.20;;;;;;20997099;28;20029;-52
2023/03/21 13:17:29;;;;;;;16.25;12.45;;;16.00;94.10;;;;;;20995488;28;20401;-50
2023/03/21 13:27:38;;;;;;;18.00;14.45;;;15.90;94.70;;;;;;20994687;28;20547;-49
2023/03/21 13:37:42;;;;;;;20.27;15.32;;;15.80;95.20;;;;;;20993309;28;20032;-49
2023/03/21 13:47:54;;;;;;;20.52;16.60;;;15.40;94.30;;;;;;20993501;28;20060;-53
2023/03/21 13:57:56;;;;;;;21.00;16.00;;;15.30;95.10;;;;;;20958011;28;20040;-51
2023/03/21 14:08:02;;;;;;;20.80;15.95;;;14.90;95.00;;;;;;20991808;28;20048;-51
2023/03/21 14:18:06;;;;;;;23.00;16.98;;;14.50;95.40;;;;;;20990800;28;20426;-51
2023/03/21 14:28:21;;;;;;;22.98;18.17;;;14.30;95.40;;;;;;20989799;28;20086;-54
2023/03/21 14:38:26;;;;;;;24.17;19.20;;;14.00;95.80;;;;;;20971434;28;20101;-53
2023/03/21 14:48:33;;;;;;;29.52;22.17;;;13.40;96.60;;;;;;20988347;28;20035;-55
2023/03/21 14:58:40;;;;;;;30.55;24.15;;;13.00;97.60;;;;;;20987349;28;20036;-51
2023/03/21 15:08:55;;;;;;;35.25;26.75;;;12.60;98.80;;;;;;20985293;28;20098;-49
2023/03/21 15:18:58;;;;;;;34.65;25.67;;;12.30;99.30;;;;;;20986255;28;20044;-50
2023/03/21 15:29:01;;;;;;;35.05;25.48;;;12.20;99.90;;;;;;20982271;28;20044;-54
2023/03/21 15:39:16;;;;;;;35.97;26.10;;;12.00;99.90;;;;;;20983175;28;20046;-52
2023/03/21 15:49:26;;;;;;;41.70;28.83;;;11.70;99.90;;;;;;20986158;28;20029;-49
2023/03/21 15:59:35;;;;;;;35.10;25.17;;;11.40;99.90;;;;;;20947257;28;20028;-49
2023/03/21 16:09:41;;;;;;;38.42;27.23;;;11.10;99.90;;;;;;21001794;28;20052;-51
2023/03/21 16:19:43;;;;;;;37.08;27.50;;;10.70;99.90;;;;;;21000250;28;20036;-49
2023/03/21 16:29:44;;;;;;;40.08;27.48;;;10.40;99.90;;;;;;20998897;28;20078;-50
2023/03/21 16:39:46;;;;;;;36.50;26.23;;;10.10;99.90;;;;;;20994788;28;20032;-55
2023/03/21 16:49:48;;;;;;;40.45;28.10;;;9.70;99.90;;;;;;20997565;28;20382;-55
2023/03/21 16:59:50;;;;;;;41.60;29.15;;;9.30;99.90;;;;;;20996939;28;20059;-55
2023/03/21 17:09:51;;;;;;;40.97;27.80;;;8.90;99.90;;;;;;20995934;28;20044;-54
2023/03/21 17:19:53;;;;;;;42.22;28.58;;;8.60;99.90;;;;;;20995546;28;20515;-50
2023/03/21 17:29:57;;;;;;;50.20;27.63;;;8.10;99.90;;;;;;20994798;28;20334;-48
2023/03/21 17:39:58;;;;;;;32.30;19.83;;;7.70;99.90;;;;;;20994226;28;20028;-52
2023/03/21 17:50:01;;;;;;;33.60;22.10;;;7.20;99.90;;;;;;20994471;28;20028;-49
2023/03/21 18:00:10;;;;;;;37.90;23.63;;;6.90;99.90;;;;;;20992499;28;20036;-54
2023/03/21 18:10:17;;;;;;;25.58;18.10;;;6.60;99.90;;;;;;20990961;28;20053;-50
2023/03/21 18:20:21;;;;;;;29.63;17.77;;;6.20;99.90;;;;;;20990363;28;20082;-53
2023/03/21 18:30:22;;;;;;;27.10;16.98;;;6.00;99.90;;;;;;20989438;28;20028;-47
2023/03/21 18:40:24;;;;;;;25.58;15.02;;;5.90;99.90;;;;;;20988659;28;20028;-53
2023/03/21 18:50:26;;;;;;;21.75;15.32;;;5.70;99.90;;;;;;20971486;28;20036;-51
2023/03/21 19:00:28;;;;;;;22.77;14.63;;;5.70;99.90;;;;;;20969794;28;20037;-47
2023/03/21 19:10:29;;;;;;;22.52;14.07;;;5.60;99.90;;;;;;20941839;28;20091;-48
2023/03/21 19:20:31;;;;;;;36.92;22.25;;;5.50;99.90;;;;;;20903581;28;20479;-46
2023/03/21 19:30:33;;;;;;;33.53;20.20;;;5.30;99.90;;;;;;20884128;28;20029;-52
2023/03/21 19:40:38;;;;;;;32.08;19.33;;;5.40;99.90;;;;;;20884775;28;20025;-50
2023/03/21 19:50:40;;;;;;;28.33;18.20;;;5.40;99.90;;;;;;20902173;28;20021;-47
2023/03/21 20:00:41;;;;;;;32.25;20.52;;;5.40;99.90;;;;;;20901806;28;20029;-50
2023/03/21 20:10:46;;;;;;;31.55;21.15;;;5.50;99.90;;;;;;20930346;28;20045;-50
2023/03/21 20:20:48;;;;;;;39.00;24.52;;;5.70;99.90;;;;;;20983606;28;20535;-50
2023/03/21 20:30:55;;;;;;;36.85;23.10;;;5.80;99.90;;;;;;20982892;28;20094;-48
2023/03/21 20:40:58;;;;;;;34.20;21.02;;;5.70;99.90;;;;;;20983344;28;20037;-48
2023/03/21 20:51:06;;;;;;;31.75;20.33;;;5.60;99.90;;;;;;20997655;28;20028;-47
2023/03/21 21:01:14;;;;;;;30.80;20.25;;;5.60;99.90;;;;;;20997068;28;20074;-48
2023/03/21 21:11:17;;;;;;;30.65;19.58;;;5.50;99.90;;;;;;20996905;28;20797;-50
2023/03/21 21:21:19;;;;;;;30.15;19.33;;;5.50;99.90;;;;;;20995792;28;20513;-52
2023/03/21 21:31:20;;;;;;;31.23;20.73;;;5.60;99.90;;;;;;20994174;28;20356;-51
2023/03/21 21:41:25;;;;;;;30.65;19.65;;;5.80;99.90;;;;;;20993402;28;20032;-49
2023/03/21 21:51:27;;;;;;;39.65;22.27;;;5.70;99.90;;;;;;20992961;28;20037;-48
2023/03/21 22:01:30;;;;;;;34.20;21.27;;;5.60;99.90;;;;;;20991107;28;20082;-47
2023/03/21 22:11:32;;;;;;;31.67;19.90;;;5.50;99.90;;;;;;20991031;28;20053;-48
2023/03/21 22:21:33;;;;;;;33.63;20.92;;;5.40;99.90;;;;;;20990614;28;20105;-48
2023/03/21 22:31:37;;;;;;;32.30;20.75;;;5.50;99.90;;;;;;20989470;28;20536;-50
2023/03/21 22:41:39;;;;;;;33.65;21.00;;;5.40;99.90;;;;;;20989147;28;20036;-50
2023/03/21 22:51:42;;;;;;;34.83;21.80;;;5.30;99.90;;;;;;20988886;28;20048;-52
2023/03/21 23:01:44;;;;;;;32.33;20.73;;;5.20;99.90;;;;;;20969658;28;20036;-47
2023/03/21 23:11:48;;;;;;;34.83;20.75;;;5.20;99.90;;;;;;20986015;28;20052;-50
2023/03/21 23:21:49;;;;;;;37.63;21.98;;;5.40;99.90;;;;;;20986798;28;20044;-49
2023/03/21 23:31:51;;;;;;;33.70;21.85;;;5.50;99.90;;;;;;20986028;28;20085;-48
2023/03/21 23:41:53;;;;;;;34.67;21.08;;;5.40;99.90;;;;;;20985801;28;20033;-48
2023/03/21 23:51:54;;;;;;;34.60;22.27;;;5.30;99.90;;;;;;20985692;28;20033;-50
